Terminal Aerodrome Forecast
Issued by NWS Corpus Christi, TX

Home | Current Version | Previous Version | Text Only | Print | Product List | Glossary On
Versions: 1 2 3 4 5 6 7 8 9 10 11 12 13
000
FTUS44 KCRP 230500
TAFCRP
TAF
KCRP 230539Z 2306/2406 04007KT P6SM SCT025 BKN200
     FM231800 07014KT P6SM SCT040 BKN250
     FM240400 VRB03KT P6SM SCT250=

USA.gov is the U.S. government's official web portal to all federal, state and local government web resources and services.